Time;durP1;ratioP1;P1;durP2;ratioP2;P2;SDS_P1;SDS_P2;PMS_P1;PMS_P2;Temp;Humidity;BMP_temperature;BMP_pressure;BME280_temperature;BME280_humidity;BME280_pressure;Samples;Min_cycle;Max_cycle;Signal;HPM_P1;HPM_P2
2023/08/13 00:00:01;;;;;;;7.43;3.53;;;19.50;99.90;;;;;;5004047;28;20231;-77
2023/08/13 00:02:30;;;;;;;6.90;3.83;;;19.80;1.00;;;;;;4983202;28;20204;-77
2023/08/13 00:04:58;;;;;;;6.28;3.78;;;19.60;1.00;;;;;;4988807;28;20195;-77
2023/08/13 00:07:25;;;;;;;8.00;4.05;;;19.60;99.90;;;;;;4986810;28;20674;-77
2023/08/13 00:09:52;;;;;;;7.03;3.70;;;19.50;1.00;;;;;;4987005;28;20231;-76
2023/08/13 00:12:20;;;;;;;6.20;3.80;;;19.40;67.10;;;;;;4974672;28;20230;-77
2023/08/13 00:14:47;;;;;;;5.00;3.75;;;19.40;99.90;;;;;;4988218;28;20196;-76
2023/08/13 00:17:15;;;;;;;4.53;3.10;;;19.40;99.90;;;;;;4968946;28;20662;-76
2023/08/13 00:19:43;;;;;;;7.22;3.60;;;19.50;1.00;;;;;;4979842;28;20214;-77
2023/08/13 00:22:11;;;;;;;8.30;3.70;;;19.80;26.50;;;;;;4984293;28;20204;-76
2023/08/13 00:24:38;;;;;;;5.97;3.50;;;19.80;1.00;;;;;;4995691;28;20201;-77
2023/08/13 00:27:05;;;;;;;6.13;3.13;;;19.90;99.90;;;;;;4981942;28;20201;-77
2023/08/13 00:29:33;;;;;;;5.32;3.47;;;20.20;1.00;;;;;;4981036;28;20227;-77
2023/08/13 00:32:01;;;;;;;5.13;3.45;;;20.10;1.00;;;;;;4986607;28;20193;-77
2023/08/13 00:34:28;;;;;;;9.57;3.90;;;19.90;1.00;;;;;;5003240;28;20200;-77
2023/08/13 00:36:57;;;;;;;4.68;3.53;;;19.80;1.00;;;;;;4978763;28;20204;-77
2023/08/13 00:39:24;;;;;;;9.55;3.97;;;19.50;1.00;;;;;;4977201;28;20202;-77
2023/08/13 00:41:53;;;;;;;7.80;3.92;;;19.50;1.00;;;;;;4982864;28;20261;-77
2023/08/13 00:44:20;;;;;;;8.13;4.00;;;19.40;1.00;;;;;;4995241;28;20212;-77
2023/08/13 00:46:47;;;;;;;7.38;3.70;;;19.30;1.00;;;;;;4988077;28;20207;-76
2023/08/13 00:49:16;;;;;;;7.13;3.40;;;19.30;99.90;;;;;;5002044;28;20301;-77
2023/08/13 00:51:43;;;;;;;5.45;3.65;;;19.50;99.90;;;;;;4991192;28;20236;-77
2023/08/13 00:54:13;;;;;;;6.70;3.72;;;19.40;99.90;;;;;;4984116;28;20207;-77
2023/08/13 00:56:41;;;;;;;5.85;4.15;;;19.20;1.00;;;;;;4985065;28;20670;-77
2023/08/13 00:59:10;;;;;;;8.82;4.03;;;19.40;1.00;;;;;;4997955;28;20205;-76
2023/08/13 01:01:37;;;;;;;6.80;3.67;;;19.20;99.90;;;;;;4982668;28;20227;-77
2023/08/13 01:04:05;;;;;;;6.05;3.55;;;19.10;1.00;;;;;;4980319;28;20204;-77
2023/08/13 01:06:40;;;;;;;8.60;3.80;;;19.50;1.00;;;;;;4991739;28;20539;-77
2023/08/13 01:09:12;;;;;;;7.95;3.83;;;19.40;99.90;;;;;;4991459;28;20226;-77
2023/08/13 01:11:51;;;;;;;6.28;3.95;;;19.20;99.90;;;;;;4977887;28;20239;-77
2023/08/13 01:14:24;;;;;;;4.47;3.47;;;19.20;1.00;;;;;;4995694;28;20216;-77
2023/08/13 01:16:53;;;;;;;8.73;3.83;;;19.50;99.90;;;;;;4998584;28;20192;-77
2023/08/13 01:19:21;;;;;;;7.43;4.40;;;19.20;1.00;;;;;;4982912;28;20201;-77
2023/08/13 01:21:48;;;;;;;5.80;3.78;;;19.30;88.60;;;;;;4989039;28;20235;-77
2023/08/13 01:24:17;;;;;;;6.07;3.58;;;19.50;1.00;;;;;;4993051;28;20204;-77
2023/08/13 01:26:55;;;;;;;6.75;3.63;;;19.40;99.90;;;;;;4982218;28;20211;-77
2023/08/13 01:29:42;;;;;;;5.93;3.97;;;19.20;1.00;;;;;;4990893;28;20220;-77
2023/08/13 01:32:12;;;;;;;9.40;3.80;;;19.40;99.90;;;;;;4992640;28;20204;-77
2023/08/13 01:34:40;;;;;;;4.97;3.42;;;19.60;1.00;;;;;;4987076;28;20197;-77
2023/08/13 01:37:08;;;;;;;6.35;3.40;;;19.80;1.00;;;;;;4975355;28;20201;-77
2023/08/13 01:39:37;;;;;;;6.97;3.95;;;19.40;1.00;;;;;;4993615;28;20207;-77
2023/08/13 01:42:06;;;;;;;5.20;3.30;;;19.60;99.90;;;;;;4985895;28;20204;-77
2023/08/13 01:44:34;;;;;;;8.00;3.67;;;19.80;99.90;;;;;;4985484;28;20207;-76
2023/08/13 01:47:02;;;;;;;6.53;4.10;;;19.70;17.50;;;;;;4993219;28;20549;-76
2023/08/13 01:49:29;;;;;;;6.30;3.63;;;19.40;1.00;;;;;;4994987;28;20236;-77
2023/08/13 01:51:57;;;;;;;5.47;3.90;;;19.50;99.90;;;;;;4982311;28;20243;-77
2023/08/13 01:54:24;;;;;;;7.45;4.03;;;19.60;1.00;;;;;;4989031;28;20196;-77
2023/08/13 01:56:53;;;;;;;7.35;3.58;;;19.70;99.90;;;;;;4989177;28;20211;-77
2023/08/13 01:59:21;;;;;;;6.65;3.38;;;20.00;1.00;;;;;;4987819;28;20706;-77
2023/08/13 02:01:48;;;;;;;5.38;3.63;;;20.00;1.00;;;;;;4989467;28;20311;-77
2023/08/13 02:04:15;;;;;;;7.25;3.47;;;20.00;1.00;;;;;;4987534;28;20699;-77
2023/08/13 02:06:43;;;;;;;7.38;3.80;;;19.90;99.90;;;;;;5003348;28;20219;-77
2023/08/13 02:09:10;;;;;;;8.30;3.60;;;19.60;1.00;;;;;;4997577;28;20195;-76
2023/08/13 02:11:38;;;;;;;7.57;3.90;;;19.20;99.90;;;;;;4988732;28;20227;-77
2023/08/13 02:14:07;;;;;;;8.15;3.53;;;19.10;1.00;;;;;;4986881;28;20207;-77
2023/08/13 02:16:34;;;;;;;6.38;3.30;;;19.30;99.90;;;;;;4988071;28;20212;-77
2023/08/13 02:19:02;;;;;;;5.80;3.33;;;19.30;1.00;;;;;;5005296;28;20196;-77
2023/08/13 02:21:29;;;;;;;4.93;3.75;;;19.00;99.90;;;;;;4979152;28;20224;-77
2023/08/13 02:23:59;;;;;;;10.13;3.78;;;19.00;99.90;;;;;;4979716;28;20197;-77
2023/08/13 02:26:26;;;;;;;5.57;3.17;;;19.20;1.00;;;;;;4991500;28;20677;-77
2023/08/13 02:28:54;;;;;;;8.45;3.22;;;19.20;30.00;;;;;;4987530;28;20215;-77
2023/08/13 02:31:23;;;;;;;5.88;3.50;;;19.20;1.00;;;;;;5000134;28;20220;-77
2023/08/13 02:33:50;;;;;;;8.18;3.55;;;19.10;99.90;;;;;;4993214;28;20208;-77
2023/08/13 02:36:17;;;;;;;8.18;3.70;;;19.00;99.90;;;;;;4991942;28;20212;-77
2023/08/13 02:38:44;;;;;;;7.38;3.60;;;18.90;99.90;;;;;;4989516;28;20230;-77
2023/08/13 02:41:11;;;;;;;7.55;3.20;;;18.70;99.90;;;;;;4985112;28;20212;-77
2023/08/13 02:43:51;;;;;;;7.00;3.20;;;18.80;59.90;;;;;;4998916;28;20677;-77
2023/08/13 02:46:18;;;;;;;7.57;3.75;;;18.70;66.20;;;;;;5001514;28;20534;-77
2023/08/13 02:48:47;;;;;;;5.70;3.10;;;18.90;99.90;;;;;;4983159;28;20200;-77
2023/08/13 02:51:15;;;;;;;6.15;3.15;;;19.20;1.00;;;;;;4985677;28;20239;-77
2023/08/13 02:53:43;;;;;;;5.57;3.55;;;19.20;1.00;;;;;;4984392;28;20196;-77
2023/08/13 02:56:11;;;;;;;9.23;3.95;;;18.60;99.90;;;;;;4995628;28;20546;-77
2023/08/13 02:58:39;;;;;;;6.78;3.40;;;18.70;1.00;;;;;;4979936;28;20203;-77
2023/08/13 03:01:06;;;;;;;6.95;3.20;;;18.60;1.00;;;;;;4985782;28;20216;-76
2023/08/13 03:03:34;;;;;;;11.10;3.72;;;18.90;99.90;;;;;;4986284;28;20196;-77
2023/08/13 03:06:03;;;;;;;6.82;3.45;;;18.60;99.90;;;;;;4985530;28;20596;-77
2023/08/13 03:08:30;;;;;;;8.07;3.47;;;18.50;1.00;;;;;;5006863;28;20200;-77
2023/08/13 03:10:58;;;;;;;8.00;3.15;;;18.30;1.00;;;;;;4990714;28;20229;-77
2023/08/13 03:13:25;;;;;;;6.68;3.53;;;18.40;11.90;;;;;;4993655;28;20219;-78
2023/08/13 03:15:53;;;;;;;8.02;3.55;;;18.40;1.00;;;;;;5002499;28;20196;-78
2023/08/13 03:18:21;;;;;;;5.03;3.20;;;18.60;1.00;;;;;;4989057;28;20199;-78
2023/08/13 03:20:52;;;;;;;6.18;3.22;;;18.60;99.90;;;;;;4993347;28;20228;-78
2023/08/13 03:23:21;;;;;;;8.52;3.35;;;18.80;99.90;;;;;;4999553;28;20205;-78
2023/08/13 03:25:48;;;;;;;6.93;2.90;;;19.10;1.00;;;;;;4990583;28;20208;-76
2023/08/13 03:28:16;;;;;;;7.22;3.40;;;19.30;99.90;;;;;;4989984;28;20212;-77
2023/08/13 03:30:44;;;;;;;6.50;3.17;;;19.40;1.00;;;;;;4983642;28;20574;-76
2023/08/13 03:33:11;;;;;;;7.88;3.20;;;19.10;71.10;;;;;;5000011;28;20196;-76
2023/08/13 03:35:39;;;;;;;5.78;2.90;;;19.10;1.00;;;;;;4982848;28;20201;-76
2023/08/13 03:38:07;;;;;;;5.30;3.42;;;18.50;1.00;;;;;;4987634;28;20214;-76
2023/08/13 03:40:38;;;;;;;6.43;2.85;;;18.60;99.90;;;;;;4970420;28;20215;-77
2023/08/13 03:43:05;;;;;;;8.57;3.28;;;18.60;50.70;;;;;;4982766;28;20211;-76
2023/08/13 03:45:33;;;;;;;9.23;3.60;;;18.40;93.30;;;;;;5003941;28;20211;-76
2023/08/13 03:48:00;;;;;;;4.43;3.00;;;18.30;1.00;;;;;;4980172;28;20196;-76
2023/08/13 03:50:28;;;;;;;7.43;3.60;;;18.10;1.00;;;;;;4992994;28;20220;-76
2023/08/13 03:52:55;;;;;;;5.53;3.15;;;18.40;1.00;;;;;;4987327;28;20196;-76
2023/08/13 03:55:23;;;;;;;6.47;2.90;;;18.10;99.90;;;;;;4985235;28;20200;-76
2023/08/13 03:57:54;;;;;;;8.35;3.30;;;18.30;1.00;;;;;;4989065;28;20566;-76
2023/08/13 04:00:22;;;;;;;7.88;3.17;;;18.60;1.00;;;;;;4997389;28;20224;-77
2023/08/13 04:02:50;;;;;;;11.85;3.45;;;18.40;1.00;;;;;;4988564;28;20547;-76
2023/08/13 04:05:18;;;;;;;8.02;3.50;;;18.50;42.20;;;;;;4986815;28;20220;-76
2023/08/13 04:07:45;;;;;;;6.65;2.80;;;18.10;1.00;;;;;;4979679;28;20200;-76
2023/08/13 04:10:13;;;;;;;6.03;3.10;;;18.20;1.00;;;;;;4989114;28;20230;-76
2023/08/13 04:12:40;;;;;;;8.45;3.20;;;18.50;1.00;;;;;;4988000;28;20220;-76
2023/08/13 04:15:11;;;;;;;9.18;3.83;;;18.40;99.90;;;;;;4990630;28;20203;-76
2023/08/13 04:17:41;;;;;;;7.50;3.38;;;18.30;1.00;;;;;;4983746;28;20202;-76
2023/08/13 04:20:11;;;;;;;8.68;3.45;;;18.40;1.00;;;;;;5000160;28;20231;-76
2023/08/13 04:22:38;;;;;;;5.07;2.70;;;18.20;99.90;;;;;;4987578;28;20643;-76
2023/08/13 04:25:08;;;;;;;7.22;2.70;;;18.30;95.60;;;;;;4975656;28;20216;-76
2023/08/13 04:27:35;;;;;;;4.80;2.85;;;18.30;1.00;;;;;;5000050;28;20197;-76
2023/08/13 04:30:03;;;;;;;7.13;2.63;;;18.40;99.90;;;;;;4994724;28;20219;-77
2023/08/13 04:32:32;;;;;;;6.80;3.28;;;18.40;1.00;;;;;;4985540;28;20212;-76
2023/08/13 04:35:00;;;;;;;8.65;3.17;;;18.50;99.90;;;;;;4984059;28;20223;-76
2023/08/13 04:37:27;;;;;;;13.82;3.65;;;18.50;99.90;;;;;;5003307;28;20903;-77
2023/08/13 04:39:57;;;;;;;8.13;3.05;;;18.40;92.30;;;;;;4990388;28;20230;-76
2023/08/13 04:42:25;;;;;;;6.78;2.95;;;18.10;1.00;;;;;;4984146;28;20570;-77
2023/08/13 04:44:53;;;;;;;7.55;2.70;;;18.30;1.00;;;;;;4987673;28;20211;-76
2023/08/13 04:47:20;;;;;;;4.90;2.80;;;18.70;99.90;;;;;;4985232;28;20201;-77
2023/08/13 04:49:49;;;;;;;4.80;2.45;;;18.90;1.00;;;;;;4989085;28;20200;-76
2023/08/13 04:52:17;;;;;;;5.55;2.80;;;19.20;1.00;;;;;;4990529;28;20209;-76
2023/08/13 04:54:46;;;;;;;5.57;2.85;;;19.30;99.90;;;;;;4991183;28;20218;-76
2023/08/13 04:57:13;;;;;;;5.07;2.60;;;19.10;5.40;;;;;;4990770;28;20200;-76
2023/08/13 04:59:41;;;;;;;5.20;2.40;;;19.10;1.00;;;;;;4989373;28;20200;-76
2023/08/13 05:02:09;;;;;;;5.65;3.47;;;18.80;99.90;;;;;;4988076;28;20205;-76
2023/08/13 05:04:37;;;;;;;5.05;2.58;;;18.40;99.90;;;;;;4966005;28;20219;-76
2023/08/13 05:07:06;;;;;;;7.40;2.90;;;18.30;37.00;;;;;;4985899;28;20212;-76
2023/08/13 05:09:34;;;;;;;6.78;3.13;;;18.20;99.90;;;;;;4984018;28;20201;-77
2023/08/13 05:12:02;;;;;;;7.57;2.60;;;18.40;1.00;;;;;;4968893;28;20223;-77
2023/08/13 05:14:29;;;;;;;7.18;2.63;;;18.60;1.00;;;;;;4990049;28;20700;-77
2023/08/13 05:16:58;;;;;;;7.82;3.05;;;18.40;1.00;;;;;;4982792;28;20211;-76
2023/08/13 05:19:25;;;;;;;6.15;2.70;;;18.40;99.90;;;;;;4982475;28;20878;-76
2023/08/13 05:21:53;;;;;;;7.05;2.63;;;18.40;61.90;;;;;;4987823;28;20584;-76
2023/08/13 05:24:22;;;;;;;4.97;2.53;;;18.40;99.90;;;;;;4984746;28;20215;-76
2023/08/13 05:26:49;;;;;;;5.47;2.88;;;18.20;99.90;;;;;;5005651;28;20204;-77
2023/08/13 05:29:18;;;;;;;3.97;2.70;;;18.60;99.90;;;;;;4989400;28;20655;-76
2023/08/13 05:31:45;;;;;;;4.28;2.08;;;19.00;1.00;;;;;;4993350;28;20215;-76
2023/08/13 05:34:13;;;;;;;3.40;2.30;;;19.40;99.90;;;;;;4985428;28;20588;-76
2023/08/13 05:36:40;;;;;;;5.55;2.38;;;19.60;1.00;;;;;;4991382;28;20209;-76
2023/08/13 05:39:09;;;;;;;4.53;2.15;;;19.70;1.00;;;;;;4985932;28;20204;-76
2023/08/13 05:41:38;;;;;;;4.60;2.22;;;19.80;99.90;;;;;;4986519;28;20224;-76
2023/08/13 05:44:05;;;;;;;4.95;2.30;;;19.80;99.90;;;;;;4985940;28;20211;-77
2023/08/13 05:46:33;;;;;;;3.10;2.38;;;19.80;99.90;;;;;;4984439;28;20205;-76
2023/08/13 05:49:00;;;;;;;6.22;2.15;;;19.90;1.00;;;;;;4987821;28;20200;-77
2023/08/13 05:51:28;;;;;;;6.68;2.85;;;19.90;1.00;;;;;;4997930;28;20232;-77
2023/08/13 05:53:56;;;;;;;4.75;2.58;;;20.00;99.90;;;;;;4989696;28;20204;-77
2023/08/13 05:56:23;;;;;;;4.28;2.55;;;20.10;1.00;;;;;;4989281;28;20204;-77
2023/08/13 05:58:52;;;;;;;4.68;2.67;;;20.00;1.00;;;;;;4995405;28;20208;-77
2023/08/13 06:01:20;;;;;;;5.72;2.30;;;19.90;1.00;;;;;;4985719;28;20220;-77
2023/08/13 06:03:47;;;;;;;5.85;2.47;;;20.00;1.00;;;;;;4984839;28;20216;-78
2023/08/13 06:06:15;;;;;;;6.07;2.53;;;19.90;1.00;;;;;;4996122;28;20212;-78
2023/08/13 06:08:43;;;;;;;4.80;2.40;;;19.90;77.70;;;;;;4986807;28;21578;-76
2023/08/13 06:11:10;;;;;;;6.97;2.35;;;19.90;99.90;;;;;;4992711;28;20227;-77
2023/08/13 06:13:38;;;;;;;4.80;2.20;;;19.90;99.90;;;;;;4986695;28;20228;-77
2023/08/13 06:16:07;;;;;;;5.63;2.65;;;19.60;99.90;;;;;;5003006;28;20207;-77
2023/08/13 06:18:35;;;;;;;5.45;2.42;;;19.60;1.00;;;;;;4986221;28;20540;-77
2023/08/13 06:21:03;;;;;;;5.82;2.10;;;19.60;99.90;;;;;;4982548;28;20730;-77
2023/08/13 06:23:31;;;;;;;6.43;2.60;;;19.80;99.90;;;;;;4984031;28;20209;-77
2023/08/13 06:25:58;;;;;;;4.30;2.65;;;19.60;1.00;;;;;;4985085;28;20223;-76
2023/08/13 06:28:26;;;;;;;6.00;2.88;;;19.60;99.90;;;;;;4990280;28;20214;-76
2023/08/13 06:30:53;;;;;;;8.38;3.35;;;19.50;99.90;;;;;;4969520;28;20255;-77
2023/08/13 06:33:22;;;;;;;4.72;2.30;;;19.70;99.90;;;;;;4984250;28;20838;-77
2023/08/13 06:35:50;;;;;;;5.50;2.33;;;19.60;99.90;;;;;;4993154;28;20207;-77
2023/08/13 06:38:18;;;;;;;5.53;2.35;;;19.70;1.00;;;;;;4986538;28;20224;-77
2023/08/13 06:40:46;;;;;;;5.32;2.63;;;19.80;1.00;;;;;;4994539;28;20259;-78
2023/08/13 06:43:15;;;;;;;7.13;2.53;;;19.80;99.90;;;;;;5000248;28;20207;-79
2023/08/13 06:45:42;;;;;;;2.72;1.92;;;19.60;99.90;;;;;;5002764;28;20231;-79
2023/08/13 06:48:10;;;;;;;6.55;2.20;;;19.70;99.90;;;;;;4990095;28;20566;-78
2023/08/13 06:50:39;;;;;;;4.97;2.05;;;20.00;99.90;;;;;;4984855;28;20224;-78
2023/08/13 06:53:07;;;;;;;4.85;2.15;;;20.00;1.00;;;;;;4996196;28;20212;-79
2023/08/13 06:55:34;;;;;;;3.50;1.98;;;20.00;1.00;;;;;;5004765;28;20670;-79
2023/08/13 06:58:01;;;;;;;6.65;2.40;;;20.10;1.00;;;;;;4990058;28;20215;-79
2023/08/13 07:00:29;;;;;;;4.82;2.05;;;20.10;1.00;;;;;;4979588;28;20231;-82
2023/08/13 07:02:56;;;;;;;4.00;1.90;;;20.10;99.90;;;;;;4987098;28;20242;-76
2023/08/13 07:05:24;;;;;;;10.00;2.63;;;19.80;1.00;;;;;;4984659;28;20659;-76
2023/08/13 07:07:53;;;;;;;4.03;2.38;;;19.70;99.90;;;;;;4990850;28;20209;-76
2023/08/13 07:10:20;;;;;;;3.08;2.05;;;19.90;1.00;;;;;;4989926;28;20221;-76
2023/08/13 07:12:48;;;;;;;3.35;1.90;;;19.60;99.90;;;;;;4989641;28;20216;-76
2023/08/13 07:15:15;;;;;;;7.03;2.30;;;19.60;1.00;;;;;;4990783;28;20211;-76
2023/08/13 07:17:42;;;;;;;7.55;2.53;;;19.70;1.00;;;;;;4994406;28;20200;-76
2023/08/13 07:20:13;;;;;;;2.45;1.90;;;19.70;1.00;;;;;;4984394;28;20227;-76
2023/08/13 07:22:43;;;;;;;6.43;2.13;;;19.80;23.30;;;;;;4995654;28;20209;-76
2023/08/13 07:25:12;;;;;;;6.65;2.33;;;19.80;1.00;;;;;;4991767;28;20216;-76
2023/08/13 07:27:40;;;;;;;6.47;2.10;;;20.00;99.90;;;;;;4976624;28;20200;-76
2023/08/13 07:30:09;;;;;;;3.53;1.85;;;20.10;99.90;;;;;;4991959;28;20224;-76
2023/08/13 07:32:37;;;;;;;5.22;2.25;;;20.00;1.00;;;;;;4992645;28;20228;-76
2023/08/13 07:35:06;;;;;;;4.75;1.80;;;20.00;1.00;;;;;;4996868;28;20218;-76
2023/08/13 07:37:34;;;;;;;5.78;2.00;;;20.20;1.00;;;;;;5000681;28;20192;-76
2023/08/13 07:40:02;;;;;;;6.90;1.90;;;20.40;1.00;;;;;;4991122;28;20227;-76
2023/08/13 07:42:31;;;;;;;5.63;1.83;;;20.40;99.90;;;;;;4992676;28;20552;-76
2023/08/13 07:44:58;;;;;;;4.65;2.28;;;20.40;99.90;;;;;;4994014;28;20192;-76
2023/08/13 07:47:25;;;;;;;7.35;2.28;;;20.50;99.90;;;;;;4992655;28;20205;-76
2023/08/13 07:49:53;;;;;;;6.93;1.85;;;20.40;13.60;;;;;;4982853;28;20204;-76
2023/08/13 07:52:20;;;;;;;4.20;1.95;;;20.30;1.00;;;;;;4975164;28;20181;-76
2023/08/13 07:54:48;;;;;;;5.32;1.75;;;20.40;97.40;;;;;;4990641;28;20203;-76
2023/08/13 07:57:15;;;;;;;5.50;2.00;;;20.30;1.00;;;;;;4984184;28;20564;-76
2023/08/13 07:59:44;;;;;;;6.95;1.67;;;20.50;49.70;;;;;;4993617;28;20187;-76
2023/08/13 08:02:11;;;;;;;5.95;2.25;;;20.50;1.00;;;;;;4992023;28;20208;-76
2023/08/13 08:04:39;;;;;;;5.70;1.70;;;20.40;1.00;;;;;;4992244;28;20207;-76
2023/08/13 08:07:06;;;;;;;5.30;2.25;;;20.40;1.00;;;;;;5009590;28;20195;-76
2023/08/13 08:09:34;;;;;;;5.78;1.80;;;20.60;1.00;;;;;;4998381;28;20197;-76
2023/08/13 08:12:01;;;;;;;6.40;2.00;;;20.60;1.00;;;;;;5001753;28;20204;-76
2023/08/13 08:14:29;;;;;;;5.78;1.80;;;20.70;1.00;;;;;;4992936;28;20583;-77
2023/08/13 08:17:04;;;;;;;5.28;1.50;;;20.70;1.00;;;;;;4981702;28;20220;-77
2023/08/13 08:19:32;;;;;;;2.55;1.30;;;20.70;99.90;;;;;;4965147;28;20218;-76
2023/08/13 08:22:02;;;;;;;4.72;1.50;;;20.70;99.90;;;;;;4988170;28;20232;-76
2023/08/13 08:24:29;;;;;;;6.35;2.05;;;20.80;99.90;;;;;;5003951;28;20681;-76
2023/08/13 08:26:57;;;;;;;3.63;1.60;;;20.80;99.90;;;;;;5000066;28;20217;-76
2023/08/13 08:29:24;;;;;;;4.80;2.15;;;20.90;99.90;;;;;;4989467;28;20200;-77
2023/08/13 08:31:52;;;;;;;3.95;1.40;;;21.00;99.90;;;;;;4983563;28;20239;-77
2023/08/13 08:34:21;;;;;;;3.40;1.52;;;21.10;1.00;;;;;;4996522;28;20587;-77
2023/08/13 08:36:48;;;;;;;3.63;1.35;;;21.10;1.00;;;;;;4988268;28;20215;-77
2023/08/13 08:39:16;;;;;;;2.58;1.48;;;21.20;1.00;;;;;;4982994;28;20196;-76
2023/08/13 08:41:46;;;;;;;3.08;1.42;;;21.20;1.00;;;;;;4991276;28;20229;-76
2023/08/13 08:44:20;;;;;;;4.28;2.00;;;21.20;1.00;;;;;;4987432;28;20209;-77
2023/08/13 08:46:49;;;;;;;4.65;1.40;;;21.40;1.00;;;;;;4991175;28;20219;-77
2023/08/13 08:49:19;;;;;;;4.63;1.85;;;21.40;1.00;;;;;;4988866;28;20223;-76
2023/08/13 08:51:49;;;;;;;5.28;1.85;;;21.40;1.00;;;;;;4984374;28;20239;-76
2023/08/13 08:54:17;;;;;;;2.65;1.80;;;21.50;1.00;;;;;;4984506;28;20239;-77
2023/08/13 08:56:45;;;;;;;4.13;1.50;;;21.80;1.00;;;;;;4996328;28;20701;-77
2023/08/13 08:59:12;;;;;;;6.03;1.42;;;21.80;99.90;;;;;;4979495;28;20219;-76
2023/08/13 09:01:40;;;;;;;4.13;1.38;;;21.60;99.90;;;;;;4980572;28;20246;-76
2023/08/13 09:04:08;;;;;;;3.65;1.33;;;21.40;99.90;;;;;;4988432;28;20675;-76
2023/08/13 09:06:56;;;;;;;2.85;1.67;;;21.30;99.90;;;;;;4989285;28;20208;-76
2023/08/13 09:09:29;;;;;;;2.95;1.40;;;21.60;99.90;;;;;;4986608;28;20192;-76
2023/08/13 09:12:00;;;;;;;4.78;1.40;;;21.40;99.90;;;;;;4988428;28;20224;-76
2023/08/13 09:14:28;;;;;;;2.70;1.40;;;21.50;99.90;;;;;;5002885;28;20215;-76
2023/08/13 09:16:56;;;;;;;3.63;1.70;;;21.60;99.90;;;;;;4984887;28;20577;-76
2023/08/13 09:19:25;;;;;;;6.15;1.80;;;21.60;99.90;;;;;;4976711;28;20215;-77
2023/08/13 09:21:55;;;;;;;8.07;2.15;;;21.60;99.90;;;;;;4993554;28;20227;-77
2023/08/13 09:24:34;;;;;;;4.20;1.60;;;21.60;99.90;;;;;;4995501;28;20200;-77
2023/08/13 09:27:02;;;;;;;3.25;1.70;;;21.80;99.90;;;;;;4988502;28;20207;-77
2023/08/13 09:29:31;;;;;;;2.78;1.50;;;21.80;99.90;;;;;;4987602;28;20570;-77
2023/08/13 09:31:59;;;;;;;3.22;1.23;;;21.90;99.90;;;;;;4986614;28;20228;-76
2023/08/13 09:34:34;;;;;;;4.80;1.52;;;22.00;30.60;;;;;;4988584;28;20224;-77
2023/08/13 09:37:04;;;;;;;4.57;1.52;;;22.10;81.90;;;;;;4993488;28;20226;-76
2023/08/13 09:39:32;;;;;;;4.68;2.22;;;22.00;1.00;;;;;;4986043;28;20208;-76
2023/08/13 09:42:01;;;;;;;3.78;1.20;;;22.00;99.90;;;;;;4999395;28;20240;-76
2023/08/13 09:44:29;;;;;;;6.78;1.70;;;21.90;79.80;;;;;;4986155;28;20201;-77
2023/08/13 09:47:02;;;;;;;3.60;1.38;;;22.00;51.40;;;;;;4994280;28;20221;-76
2023/08/13 09:49:31;;;;;;;4.25;1.38;;;21.90;1.00;;;;;;4982486;28;20207;-76
2023/08/13 09:52:01;;;;;;;4.50;1.58;;;21.90;1.00;;;;;;4985974;28;20244;-76
2023/08/13 09:54:44;;;;;;;4.45;1.60;;;22.10;1.00;;;;;;4986643;28;20224;-76
2023/08/13 09:57:15;;;;;;;3.40;1.48;;;22.30;1.00;;;;;;4965445;28;20212;-76
2023/08/13 09:59:44;;;;;;;3.85;1.35;;;22.20;1.00;;;;;;4982330;28;20216;-76
2023/08/13 10:02:15;;;;;;;4.47;1.45;;;22.10;1.00;;;;;;4987513;28;20215;-76
2023/08/13 10:04:43;;;;;;;3.58;1.33;;;22.20;1.00;;;;;;4977350;28;20200;-76
2023/08/13 10:07:10;;;;;;;3.50;1.55;;;22.10;1.00;;;;;;4993240;28;20208;-76
2023/08/13 10:09:45;;;;;;;2.75;1.27;;;22.20;1.00;;;;;;4982157;28;20209;-76
2023/08/13 10:12:16;;;;;;;4.10;1.58;;;22.10;1.00;;;;;;4993500;28;20207;-77
2023/08/13 10:14:44;;;;;;;2.28;1.15;;;22.20;1.00;;;;;;4994684;28;20211;-77
2023/08/13 10:17:18;;;;;;;4.38;1.45;;;22.40;1.00;;;;;;4986300;28;20208;-77
2023/08/13 10:19:57;;;;;;;3.28;1.20;;;22.40;1.00;;;;;;4993460;28;20573;-77
2023/08/13 10:22:41;;;;;;;4.45;1.90;;;22.40;1.00;;;;;;4998457;28;20200;-77
2023/08/13 10:25:28;;;;;;;3.55;1.42;;;22.40;1.00;;;;;;4994212;28;20543;-77
2023/08/13 10:27:56;;;;;;;3.95;1.80;;;22.70;1.00;;;;;;4993262;28;20196;-77
2023/08/13 10:30:35;;;;;;;4.57;1.23;;;22.70;1.00;;;;;;4996052;28;20228;-77
2023/08/13 10:33:02;;;;;;;4.75;1.77;;;22.80;99.90;;;;;;4995635;28;20223;-76
2023/08/13 10:35:34;;;;;;;5.65;1.65;;;22.90;99.90;;;;;;4989270;28;20216;-76
2023/08/13 10:38:03;;;;;;;3.67;1.48;;;22.80;99.90;;;;;;4981367;28;20216;-77
2023/08/13 10:40:31;;;;;;;4.10;1.30;;;23.00;99.90;;;;;;4973445;28;20239;-77
2023/08/13 10:42:59;;;;;;;3.85;1.20;;;23.10;99.90;;;;;;4985031;28;20212;-77
2023/08/13 10:45:29;;;;;;;3.60;1.60;;;22.90;99.90;;;;;;4987471;28;20201;-77
2023/08/13 10:47:58;;;;;;;3.65;1.30;;;22.80;99.90;;;;;;4990114;28;20576;-77
2023/08/13 10:50:31;;;;;;;2.63;1.30;;;22.90;99.90;;;;;;4983409;28;20229;-77
2023/08/13 10:53:07;;;;;;;3.53;1.90;;;22.90;99.90;;;;;;4991281;28;20200;-77
2023/08/13 10:55:39;;;;;;;3.20;1.70;;;23.20;99.90;;;;;;4988897;28;20224;-77
2023/08/13 10:58:07;;;;;;;3.03;1.38;;;23.10;99.90;;;;;;5006716;28;20219;-77
2023/08/13 11:00:42;;;;;;;4.60;1.67;;;22.90;99.90;;;;;;5007561;28;20231;-77
2023/08/13 11:03:19;;;;;;;4.38;1.58;;;23.10;99.90;;;;;;4987751;28;20200;-77
2023/08/13 11:05:46;;;;;;;6.10;1.98;;;23.30;99.90;;;;;;5002961;28;20212;-77
2023/08/13 11:08:18;;;;;;;5.63;1.80;;;23.40;99.90;;;;;;4989359;28;20218;-77
2023/08/13 11:10:48;;;;;;;4.70;1.65;;;23.30;99.90;;;;;;4981534;28;20247;-77
2023/08/13 11:13:18;;;;;;;3.63;1.58;;;23.30;99.90;;;;;;4993846;28;20210;-77
2023/08/13 11:15:50;;;;;;;5.00;1.85;;;23.20;99.90;;;;;;4987174;28;20232;-77
2023/08/13 11:18:17;;;;;;;4.05;1.60;;;22.90;99.90;;;;;;4991549;28;20193;-77
2023/08/13 11:20:46;;;;;;;4.07;2.03;;;22.80;99.90;;;;;;5003241;28;20235;-77
2023/08/13 11:23:14;;;;;;;7.43;1.75;;;22.80;99.90;;;;;;4986911;28;20214;-77
2023/08/13 11:25:42;;;;;;;4.55;1.90;;;22.90;99.90;;;;;;4970169;28;20196;-77
2023/08/13 11:28:10;;;;;;;4.70;1.70;;;22.90;99.90;;;;;;4986213;28;20219;-77
2023/08/13 11:30:40;;;;;;;5.15;2.05;;;23.00;99.90;;;;;;4995407;28;20224;-77
2023/08/13 11:33:07;;;;;;;5.03;2.10;;;23.10;99.90;;;;;;4988743;28;20210;-77
2023/08/13 11:35:45;;;;;;;6.45;1.92;;;23.10;99.90;;;;;;4981010;28;20220;-77
2023/08/13 11:38:13;;;;;;;7.45;2.30;;;23.00;99.90;;;;;;4982842;28;20207;-77
2023/08/13 11:40:41;;;;;;;3.83;2.03;;;22.80;99.90;;;;;;4980137;28;20239;-77
2023/08/13 11:43:14;;;;;;;3.90;1.95;;;22.90;99.90;;;;;;4976283;28;20567;-77
2023/08/13 11:45:42;;;;;;;3.47;1.88;;;23.10;99.90;;;;;;4985231;28;20593;-77
2023/08/13 11:48:12;;;;;;;4.38;2.10;;;23.10;99.90;;;;;;4992747;28;20204;-77
2023/08/13 11:50:40;;;;;;;3.85;2.20;;;23.30;99.90;;;;;;4992744;28;20216;-77
2023/08/13 11:53:10;;;;;;;3.42;2.13;;;23.30;99.90;;;;;;4999986;28;20203;-77
2023/08/13 11:55:39;;;;;;;3.28;2.40;;;23.40;99.90;;;;;;4994814;28;20211;-77
2023/08/13 11:58:07;;;;;;;4.45;2.00;;;23.60;99.90;;;;;;4992793;28;20203;-77
2023/08/13 12:00:36;;;;;;;4.93;1.98;;;23.50;99.90;;;;;;4998862;28;20226;-77
2023/08/13 12:03:04;;;;;;;5.82;2.38;;;23.40;99.90;;;;;;4991710;28;20211;-77
2023/08/13 12:05:32;;;;;;;6.30;2.72;;;23.40;99.90;;;;;;4973504;28;20200;-77
2023/08/13 12:08:01;;;;;;;4.93;2.22;;;23.40;99.90;;;;;;4987321;28;20219;-77
2023/08/13 12:10:29;;;;;;;5.32;2.92;;;23.60;99.90;;;;;;5006854;28;20690;-77
2023/08/13 12:13:15;;;;;;;6.60;2.20;;;23.60;99.90;;;;;;4988435;28;20193;-77
2023/08/13 12:15:43;;;;;;;6.80;2.00;;;23.60;99.90;;;;;;4983840;28;20204;-77
2023/08/13 12:18:17;;;;;;;4.70;2.47;;;23.50;99.90;;;;;;4981855;28;20207;-77
2023/08/13 12:20:45;;;;;;;4.70;2.22;;;23.70;99.90;;;;;;4993309;28;20220;-77
2023/08/13 12:23:12;;;;;;;9.45;2.08;;;23.60;99.90;;;;;;4974159;28;20223;-77
2023/08/13 12:25:51;;;;;;;5.50;2.15;;;23.60;99.90;;;;;;5004266;28;20197;-77
2023/08/13 12:28:18;;;;;;;2.63;1.98;;;23.40;99.90;;;;;;4984457;28;20211;-77
2023/08/13 12:30:47;;;;;;;5.63;2.38;;;23.50;99.90;;;;;;4989937;28;20718;-77
2023/08/13 12:33:14;;;;;;;4.47;1.92;;;23.60;99.90;;;;;;4984562;28;20196;-77
2023/08/13 12:35:42;;;;;;;3.42;2.10;;;23.70;99.90;;;;;;4994743;28;20212;-78
2023/08/13 12:38:09;;;;;;;4.80;2.28;;;23.90;99.90;;;;;;4999855;28;20204;-78
2023/08/13 12:40:37;;;;;;;5.20;2.40;;;23.80;99.90;;;;;;4990635;28;20231;-77
2023/08/13 12:43:04;;;;;;;4.30;1.95;;;23.60;51.70;;;;;;4991585;28;20211;-77
2023/08/13 12:45:32;;;;;;;3.58;2.13;;;23.70;99.90;;;;;;4982361;28;20196;-77
2023/08/13 12:48:01;;;;;;;6.07;2.33;;;23.70;99.90;;;;;;4996317;28;20196;-77
2023/08/13 12:50:29;;;;;;;4.45;2.33;;;23.70;96.00;;;;;;5009469;28;20228;-77
2023/08/13 12:52:57;;;;;;;4.93;2.10;;;23.90;65.10;;;;;;4972803;28;20208;-77
2023/08/13 12:55:24;;;;;;;4.75;2.42;;;23.90;1.00;;;;;;4995596;28;20228;-77
2023/08/13 12:57:51;;;;;;;4.38;2.03;;;23.80;10.50;;;;;;4972379;28;20200;-77